Winedale's Hourly Summary for Saturday, May 12, 2018
Hour Temp
(f)
RH
(%)
Solar Rad.
(MJ/m2)
Rainfall
(in)
Wind
(mph)
5/12/2018 12:00 AM 73 83 0 0 3.67
5/12/2018 1:00 AM 73 88 0 0 3.23
5/12/2018 2:00 AM 72 91 0 0 3.12
5/12/2018 3:00 AM 72 93 0 0 2.86
5/12/2018 4:00 AM 72 94 0 0 3.18
5/12/2018 5:00 AM 72 93 0 0 4.46
5/12/2018 6:00 AM 72 93 0 0 4.19
5/12/2018 7:00 AM 72 93 0.01 0 4.38
5/12/2018 8:00 AM 73 89 0.22 0 4.85
5/12/2018 9:00 AM 75 80 0.64 0 6.13
5/12/2018 10:00 AM 78 69 1.8 0 8.31
5/12/2018 11:00 AM 81 59 2.04 0 7.58
5/12/2018 12:00 PM 83 55 1.97 0 6.43
5/12/2018 1:00 PM 84 54 1.93 0 6.6
5/12/2018 2:00 PM 87 42 3.5 0 7.43
5/12/2018 3:00 PM 89 39 3 0 7.48
5/12/2018 4:00 PM 89 38 2.62 0 6.35
5/12/2018 5:00 PM 90 37 1.99 0 6.15
5/12/2018 6:00 PM 89 39 0.95 0 6.32
5/12/2018 7:00 PM 87 43 1.01 0 5.8
5/12/2018 8:00 PM 84 50 0.27 0 4.91
5/12/2018 9:00 PM 80 61 0.01 0 4.17
5/12/2018 10:00 PM 78 69 0 0 3.69
5/12/2018 11:00 PM 76 76 0 0 3.64
Data Summary 79 67 21.96 0.00 5.21